Time;durP1;ratioP1;P1;durP2;ratioP2;P2;SDS_P1;SDS_P2;PMS_P1;PMS_P2;Temp;Humidity;BMP_temperature;BMP_pressure;BME280_temperature;BME280_humidity;BME280_pressure;Samples;Min_cycle;Max_cycle;Signal;HPM_P1;HPM_P2
2022/01/28 00:05:15;;;;;;;7.73;2.67;;;;;;;1.38;37.12;98521.28;5108989;28;20082;-66
2022/01/28 00:07:41;;;;;;;6.07;3.10;;;;;;;1.26;36.38;98511.03;5109069;28;20043;-65
2022/01/28 00:10:07;;;;;;;4.03;2.83;;;;;;;1.45;36.89;98511.16;5108873;28;20044;-66
2022/01/28 00:12:34;;;;;;;4.77;3.30;;;;;;;1.23;36.97;98517.34;5108067;28;20036;-67
2022/01/28 00:15:11;;;;;;;6.30;3.00;;;;;;;1.44;36.59;98510.34;5091661;28;20074;-66
2022/01/28 00:20:52;;;;;;;2.47;1.93;;;;;;;1.39;37.13;98509.88;5110884;28;20425;-66
2022/01/28 00:39:32;;;;;;;3.65;2.65;;;;;;;1.31;36.45;98465.25;5036367;28;20136;-66
2022/01/28 00:41:57;;;;;;;1.53;1.43;;;;;;;1.64;37.83;98477.25;5092881;28;20052;-66
2022/01/28 00:44:23;;;;;;;2.00;1.80;;;;;;;1.67;37.72;98471.75;5111517;28;20044;-66
2022/01/28 00:46:49;;;;;;;3.83;2.53;;;;;;;1.71;37.01;98462.66;5092969;28;20128;-66
2022/01/28 00:49:15;;;;;;;3.07;2.27;;;;;;;1.76;37.18;98465.72;5111744;28;20035;-66
2022/01/28 00:51:41;;;;;;;3.43;2.37;;;;;;;1.64;37.08;98469.41;5111377;28;20048;-67
2022/01/28 00:54:07;;;;;;;4.37;2.90;;;;;;;1.71;36.61;98475.75;5109990;28;20035;-66
2022/01/28 00:56:33;;;;;;;2.57;2.30;;;;;;;1.75;36.71;98482.41;5109770;28;20047;-66
2022/01/28 00:58:59;;;;;;;6.00;3.00;;;;;;;1.62;36.36;98451.22;5109710;28;20134;-66
2022/01/28 01:01:29;;;;;;;1.90;1.60;;;;;;;1.69;38.05;98454.16;5109965;28;20093;-67
2022/01/28 01:03:56;;;;;;;7.40;3.00;;;;;;;1.95;36.55;98460.59;5109889;28;20043;-66
2022/01/28 01:06:21;;;;;;;6.33;2.60;;;;;;;1.60;37.28;98442.66;5095553;28;20044;-66
2022/01/28 01:08:47;;;;;;;4.67;2.40;;;;;;;1.73;37.18;98445.06;5114575;28;20036;-65
2022/01/28 01:11:13;;;;;;;5.33;2.00;;;;;;;1.77;37.62;98444.66;5113331;28;20047;-66
2022/01/28 01:13:41;;;;;;;3.43;2.07;;;;;;;1.90;37.98;98440.97;5114638;28;20563;-65
2022/01/28 01:16:09;;;;;;;3.87;2.13;;;;;;;1.84;36.85;98438.91;5113074;28;20055;-66
2022/01/28 01:18:48;;;;;;;3.97;2.43;;;;;;;1.49;36.88;98402.69;5096065;28;20043;-66
2022/01/28 01:21:21;;;;;;;3.63;2.80;;;;;;;1.77;36.61;98435.97;5113199;28;20380;-66
2022/01/28 01:23:52;;;;;;;4.20;2.63;;;;;;;1.86;37.04;98440.41;5113181;28;20047;-66
2022/01/28 01:26:18;;;;;;;2.17;1.88;;;;;;;1.84;36.83;98418.78;5096882;28;20043;-66
2022/01/28 01:28:44;;;;;;;4.23;2.23;;;;;;;1.92;37.37;98423.38;5096072;28;20040;-66
2022/01/28 01:31:16;;;;;;;4.27;2.17;;;;;;;2.24;36.99;98406.47;5114003;27;20506;-66
2022/01/28 01:33:51;;;;;;;6.00;2.40;;;;;;;1.68;36.90;98413.22;5113693;28;20426;-66
2022/01/28 01:36:17;;;;;;;6.77;2.10;;;;;;;1.78;37.33;98401.81;5114214;28;20098;-65
2022/01/28 01:38:43;;;;;;;4.07;2.00;;;;;;;2.01;37.36;98412.91;5112167;28;20075;-66
2022/01/28 01:41:18;;;;;;;4.57;3.40;;;;;;;2.10;36.82;98417.34;5112024;28;20089;-65
2022/01/28 01:44:09;;;;;;;3.37;2.20;;;;;;;2.43;36.71;98403.06;5077558;28;20480;-66
2022/01/28 01:46:48;;;;;;;5.82;3.70;;;;;;;2.12;36.72;98386.63;5097025;28;20040;-66
2022/01/28 01:52:03;;;;;;;9.33;2.90;;;;;;;1.74;36.77;98405.66;5109915;28;20039;-66
2022/01/28 01:54:37;;;;;;;3.20;1.92;;;;;;;2.20;37.82;98405.06;5109541;28;20083;-67
2022/01/28 01:57:04;;;;;;;4.53;2.77;;;;;;;2.04;37.77;98396.94;5111878;28;20075;-66
2022/01/28 01:59:30;;;;;;;6.73;2.80;;;;;;;1.57;37.32;98397.63;5076755;28;20700;-67
2022/01/28 02:01:56;;;;;;;3.03;2.10;;;;;;;1.44;37.12;98379.56;5110732;28;20035;-67
2022/01/28 02:04:22;;;;;;;6.17;2.83;;;;;;;1.68;37.37;98414.06;5110778;28;20132;-67
2022/01/28 02:06:48;;;;;;;5.33;3.47;;;;;;;1.46;36.87;98395.91;5111993;28;20093;-66
2022/01/28 02:09:13;;;;;;;6.27;2.60;;;;;;;1.44;37.54;98355.16;5112217;28;20051;-66
2022/01/28 02:11:40;;;;;;;5.57;3.17;;;;;;;1.96;37.22;98395.94;5113283;28;20047;-66
2022/01/28 02:14:06;;;;;;;3.67;2.30;;;;;;;2.06;37.56;98389.75;5095014;28;20043;-67
2022/01/28 02:16:33;;;;;;;5.43;3.10;;;;;;;2.15;37.06;98394.22;5111792;28;20055;-66
2022/01/28 02:18:58;;;;;;;4.63;2.70;;;;;;;2.04;36.82;98393.47;5095786;28;20050;-66
2022/01/28 02:21:24;;;;;;;6.13;3.47;;;;;;;1.81;37.39;98378.97;5114105;27;20047;-66
2022/01/28 02:23:56;;;;;;;5.53;3.10;;;;;;;1.81;36.69;98384.19;5113521;28;20122;-66
2022/01/28 02:26:22;;;;;;;5.93;3.47;;;;;;;1.90;36.83;98392.09;5113208;28;20039;-66
2022/01/28 02:28:53;;;;;;;5.37;3.50;;;;;;;1.99;36.98;98390.44;5094891;28;20495;-66
2022/01/28 02:31:22;;;;;;;7.45;2.60;;;;;;;2.09;37.44;98381.63;5112936;28;20078;-66
2022/01/28 02:33:50;;;;;;;5.27;3.23;;;;;;;1.91;36.63;98401.56;5111835;28;20063;-66
2022/01/28 02:36:16;;;;;;;5.40;3.50;;;;;;;1.84;36.61;98392.63;5094658;28;20558;-65
2022/01/28 02:38:41;;;;;;;4.97;2.60;;;;;;;1.93;37.01;98391.81;5077877;28;20138;-66
2022/01/28 02:41:07;;;;;;;4.93;2.83;;;;;;;1.91;36.87;98383.25;5111423;28;20031;-66
2022/01/28 02:46:14;;;;;;;4.73;3.47;;;;;;;2.09;37.08;98372.97;5112679;28;20063;-66
2022/01/28 02:48:50;;;;;;;9.90;3.40;;;;;;;1.89;37.08;98382.59;5095611;28;20051;-66
2022/01/28 02:51:19;;;;;;;6.50;3.53;;;;;;;1.83;37.07;98354.31;5111312;28;20073;-66
2022/01/28 02:53:51;;;;;;;7.97;3.90;;;;;;;1.90;36.88;98355.44;5094813;28;20048;-66
2022/01/28 02:56:20;;;;;;;5.03;2.90;;;;;;;1.98;37.34;98357.38;5112277;28;20044;-66
2022/01/28 02:58:47;;;;;;;6.73;2.77;;;;;;;2.09;37.66;98333.69;5112570;28;20434;-66
2022/01/28 03:01:15;;;;;;;3.57;2.40;;;;;;;2.44;37.77;98347.91;5111175;28;20571;-66
2022/01/28 03:03:45;;;;;;;5.07;2.50;;;;;;;2.40;37.60;98340.44;5112168;28;20059;-66
2022/01/28 03:06:12;;;;;;;7.28;2.97;;;;;;;2.28;36.91;98346.78;5093917;28;20055;-66
2022/01/28 03:08:42;;;;;;;5.40;3.30;;;;;;;2.02;37.35;98303.75;5110801;28;20042;-67
2022/01/28 03:11:42;;;;;;;6.47;3.33;;;;;;;1.43;37.22;98288.94;5110578;28;20055;-66
2022/01/28 03:14:13;;;;;;;5.97;3.13;;;;;;;1.93;37.25;98325.53;5078874;28;20043;-66
2022/01/28 03:16:55;;;;;;;6.03;3.53;;;;;;;2.07;37.81;98338.22;5093419;28;20056;-66
2022/01/28 03:19:24;;;;;;;5.47;3.47;;;;;;;1.78;37.53;98359.13;5076621;28;20454;-67
2022/01/28 03:21:57;;;;;;;5.33;2.93;;;;;;;1.91;37.73;98330.91;5111856;28;20475;-67
2022/01/28 03:24:25;;;;;;;5.33;3.10;;;;;;;2.10;37.40;98335.34;5094648;28;20074;-65
2022/01/28 03:26:54;;;;;;;7.77;4.30;;;;;;;1.75;38.07;98338.47;5110514;28;20035;-66
2022/01/28 03:29:20;;;;;;;4.87;3.23;;;;;;;1.87;37.91;98339.16;5093003;28;20468;-66
2022/01/28 03:31:45;;;;;;;3.83;2.30;;;;;;;1.93;38.56;98328.16;5093091;28;20078;-66
2022/01/28 03:34:11;;;;;;;5.20;2.87;;;;;;;1.98;37.58;98333.81;5111590;28;20050;-66
2022/01/28 03:36:38;;;;;;;4.73;3.47;;;;;;;1.73;37.86;98320.28;5111705;28;20054;-66
2022/01/28 03:39:04;;;;;;;6.80;4.37;;;;;;;1.90;37.69;98317.94;5111715;28;20479;-66
2022/01/28 03:41:30;;;;;;;8.40;5.03;;;;;;;1.72;37.74;98315.19;5076853;28;20111;-66
2022/01/28 03:43:58;;;;;;;7.23;3.20;;;;;;;1.90;38.31;98305.69;5110182;28;20514;-66
2022/01/28 03:46:25;;;;;;;8.47;3.67;;;;;;;2.19;37.65;98296.06;5110006;28;20054;-66
2022/01/28 03:48:53;;;;;;;4.87;3.50;;;;;;;2.19;37.90;98300.47;5111411;28;20586;-66
2022/01/28 03:51:19;;;;;;;7.47;4.90;;;;;;;1.87;37.81;98285.03;5111123;28;20376;-66
2022/01/28 03:53:45;;;;;;;9.00;5.03;;;;;;;1.85;37.80;98301.81;5093215;28;20039;-65
2022/01/28 03:56:11;;;;;;;7.33;2.97;;;;;;;2.17;37.61;98303.22;5111124;28;20436;-66
2022/01/28 03:58:37;;;;;;;9.70;4.93;;;;;;;1.91;37.51;98278.56;5110113;28;20047;-65
2022/01/28 04:01:08;;;;;;;7.10;3.87;;;;;;;2.23;38.16;98302.66;5109761;28;20036;-66
2022/01/28 04:13:47;;;;;;;11.20;4.77;;;;;;;2.22;37.44;98297.56;5093025;28;20456;-66
2022/01/28 04:18:45;;;;;;;5.70;3.23;;;;;;;2.27;38.08;98293.59;5110194;28;20487;-66
2022/01/28 04:21:11;;;;;;;8.17;4.40;;;;;;;2.35;37.27;98291.09;5092761;28;20035;-66
2022/01/28 04:23:37;;;;;;;5.77;3.70;;;;;;;2.22;37.31;98290.53;5110132;28;20447;-66
2022/01/28 04:26:03;;;;;;;4.80;2.13;;;;;;;2.47;38.17;98294.38;5109875;28;20047;-67
2022/01/28 04:28:29;;;;;;;9.77;3.87;;;;;;;2.62;37.46;98309.53;5110143;28;20067;-66
2022/01/28 04:30:57;;;;;;;7.17;3.73;;;;;;;2.35;37.95;98298.13;5109868;28;20049;-65
2022/01/28 04:33:23;;;;;;;6.50;4.00;;;;;;;2.41;37.43;98301.00;5110750;28;20051;-68
2022/01/28 04:35:52;;;;;;;7.40;3.60;;;;;;;2.43;37.34;98288.59;5109581;28;20498;-67
2022/01/28 04:41:21;;;;;;;9.53;4.07;;;;;;;2.65;36.89;98292.69;5096406;28;20040;-74
2022/01/28 04:43:54;;;;;;;4.27;2.50;;;;;;;2.68;38.12;98280.13;5100729;28;20430;-74
2022/01/28 04:49:00;;;;;;;5.37;2.60;;;;;;;3.00;37.78;98293.69;5097652;28;20047;-76
2022/01/28 05:02:21;;;;;;;5.43;3.23;;;;;;;2.59;37.78;98285.38;5060834;28;20484;-69
2022/01/28 05:05:24;;;;;;;3.87;2.53;;;;;;;3.15;38.13;98262.59;5058376;28;20104;-70
2022/01/28 05:26:24;;;;;;;5.67;3.37;;;;;;;2.82;37.80;98284.91;5096248;28;20043;-72
2022/01/28 05:28:51;;;;;;;3.50;2.20;;;;;;;2.76;37.26;98276.78;5097618;28;20451;-72
2022/01/28 05:31:18;;;;;;;6.00;2.70;;;;;;;2.91;37.49;98262.25;5078374;28;20097;-72
2022/01/28 05:33:44;;;;;;;7.67;4.07;;;;;;;2.70;37.57;98269.50;5077865;28;20495;-73
2022/01/28 05:36:10;;;;;;;14.10;4.40;;;;;;;2.44;37.65;98258.81;5078239;28;20571;-72
2022/01/28 05:38:36;;;;;;;7.77;3.50;;;;;;;2.61;37.87;98268.56;5078055;28;20496;-72
2022/01/28 05:41:02;;;;;;;7.50;3.67;;;;;;;2.56;37.94;98272.56;5094699;28;20867;-72
2022/01/28 05:43:31;;;;;;;6.17;3.23;;;;;;;2.54;37.70;98257.00;5094906;28;20039;-72
2022/01/28 05:46:00;;;;;;;7.47;3.43;;;;;;;2.66;37.90;98278.63;5079746;28;20047;-72
2022/01/28 05:48:27;;;;;;;6.50;4.10;;;;;;;2.67;37.86;98257.53;5061665;28;20383;-72
2022/01/28 05:50:53;;;;;;;7.93;3.97;;;;;;;2.58;37.55;98253.13;5078331;28;20120;-72
2022/01/28 05:53:19;;;;;;;5.17;2.27;;;;;;;2.44;37.42;98297.28;5060749;28;20046;-72
2022/01/28 05:55:44;;;;;;;7.67;3.93;;;;;;;2.26;38.13;98228.25;5077526;28;20044;-72
2022/01/28 05:58:10;;;;;;;5.93;3.47;;;;;;;2.46;37.77;98261.28;5060901;28;20085;-72
2022/01/28 06:00:36;;;;;;;6.80;3.67;;;;;;;2.45;37.72;98223.78;5060894;28;20111;-71
2022/01/28 06:03:02;;;;;;;5.40;3.30;;;;;;;2.58;37.89;98234.78;5077287;28;20048;-71
2022/01/28 06:05:30;;;;;;;7.70;3.77;;;;;;;2.73;38.17;98248.25;5094734;28;20040;-71
2022/01/28 06:07:58;;;;;;;5.53;3.07;;;;;;;3.00;38.02;98229.91;5077771;28;20099;-72
2022/01/28 06:10:24;;;;;;;4.17;2.23;;;;;;;2.62;38.66;98183.75;5077800;28;20059;-72
2022/01/28 06:12:50;;;;;;;7.80;3.97;;;;;;;2.85;38.13;98224.34;5077865;28;20036;-72
2022/01/28 06:15:16;;;;;;;10.07;4.10;;;;;;;2.78;37.74;98249.47;5061353;28;20039;-72
2022/01/28 06:17:43;;;;;;;8.90;4.50;;;;;;;2.81;37.94;98237.88;5060980;28;20058;-73
2022/01/28 06:20:10;;;;;;;5.90;3.80;;;;;;;3.12;37.79;98250.56;5077352;28;20035;-73
2022/01/28 06:22:40;;;;;;;5.67;3.70;;;;;;;3.35;38.29;98225.59;5094468;28;20050;-74
2022/01/28 06:25:08;;;;;;;10.68;4.43;;;;;;;3.12;38.12;98241.91;5060678;28;20069;-72
2022/01/28 06:27:34;;;;;;;6.00;3.33;;;;;;;3.01;38.35;98253.38;5060682;28;20131;-72
2022/01/28 06:30:01;;;;;;;6.33;3.63;;;;;;;2.75;38.39;98239.25;5060224;28;20620;-73
2022/01/28 06:32:26;;;;;;;3.07;2.47;;;;;;;2.72;38.73;98236.13;5060524;28;20419;-74
2022/01/28 06:34:52;;;;;;;3.50;2.97;;;;;;;2.67;38.51;98244.41;5060273;28;20040;-73
2022/01/28 06:37:18;;;;;;;6.63;3.43;;;;;;;2.69;38.88;98223.31;5076890;28;20089;-73
2022/01/28 06:39:44;;;;;;;5.87;3.67;;;;;;;2.71;38.81;98221.34;5077010;28;20467;-73
2022/01/28 06:42:10;;;;;;;5.87;3.40;;;;;;;2.76;38.64;98221.75;5077083;28;20040;-72
2022/01/28 06:44:36;;;;;;;2.47;2.27;;;;;;;2.65;38.71;98230.63;5060323;28;20143;-74
2022/01/28 06:47:02;;;;;;;9.13;4.40;;;;;;;3.09;38.44;98229.06;5060615;28;20162;-72
2022/01/28 06:49:28;;;;;;;10.97;4.47;;;;;;;3.01;38.24;98216.66;5076961;28;20063;-72
2022/01/28 06:51:54;;;;;;;7.47;3.70;;;;;;;3.04;38.34;98245.25;5110553;28;20459;-73
2022/01/28 06:54:20;;;;;;;7.33;4.10;;;;;;;2.91;38.34;98225.53;5060309;28;20050;-74
2022/01/28 06:56:46;;;;;;;9.83;4.13;;;;;;;2.89;38.61;98232.75;5060554;28;20072;-74
2022/01/28 06:59:12;;;;;;;7.63;3.97;;;;;;;2.80;38.94;98221.31;5093705;28;20137;-70
2022/01/28 07:01:38;;;;;;;4.90;3.13;;;;;;;2.75;38.90;98214.88;5094406;28;20039;-73
2022/01/28 07:04:06;;;;;;;12.33;3.23;;;;;;;2.89;38.54;98227.50;5110231;28;20044;-73
2022/01/28 07:06:32;;;;;;;2.20;1.77;;;;;;;2.85;38.81;98206.00;5060819;28;20574;-78
2022/01/28 07:09:26;;;;;;;9.73;4.37;;;;;;;3.81;38.06;98214.09;5062819;28;20499;-77
2022/01/28 07:11:51;;;;;;;6.23;3.37;;;;;;;3.18;38.30;98220.31;5077302;28;20130;-74
2022/01/28 07:14:17;;;;;;;7.37;4.17;;;;;;;3.24;38.47;98227.59;5060551;28;20048;-73
2022/01/28 07:16:43;;;;;;;6.50;4.00;;;;;;;3.35;37.98;98230.84;5060345;28;20105;-74
2022/01/28 07:19:09;;;;;;;6.80;4.07;;;;;;;3.15;38.42;98182.06;5060757;28;20047;-78
2022/01/28 07:21:36;;;;;;;4.70;2.80;;;;;;;3.52;38.04;98223.16;5076581;28;20502;-73
2022/01/28 07:24:02;;;;;;;9.17;3.87;;;;;;;3.42;38.28;98204.84;5093131;28;20058;-74
2022/01/28 07:26:28;;;;;;;8.20;4.27;;;;;;;3.37;37.96;98235.94;5076879;28;20035;-78
2022/01/28 07:28:54;;;;;;;13.67;4.00;;;;;;;3.22;38.36;98234.78;5077064;28;20135;-74
2022/01/28 07:31:21;;;;;;;5.27;3.13;;;;;;;3.25;37.94;98261.56;5076917;28;20050;-75
2022/01/28 07:33:47;;;;;;;14.30;4.87;;;;;;;3.05;38.07;98214.59;5110460;28;20044;-73
2022/01/28 07:36:13;;;;;;;2.17;1.77;;;;;;;3.20;38.04;98273.44;5060082;28;20043;-74
2022/01/28 07:38:39;;;;;;;9.90;4.87;;;;;;;3.13;37.79;98248.78;5093563;28;20040;-77
2022/01/28 07:41:08;;;;;;;5.57;3.47;;;;;;;3.26;38.15;98257.97;5077615;28;20071;-78
2022/01/28 07:43:37;;;;;;;6.23;3.47;;;;;;;3.09;38.21;98202.84;5076307;28;20044;-76
2022/01/28 07:46:04;;;;;;;13.33;4.30;;;;;;;3.25;38.08;98245.81;5076913;28;20414;-76
2022/01/28 07:48:30;;;;;;;6.53;3.60;;;;;;;3.31;38.48;98239.16;5094175;28;20046;-75
2022/01/28 07:50:56;;;;;;;4.43;3.00;;;;;;;3.32;38.51;98223.25;5093588;28;20077;-76
2022/01/28 07:53:22;;;;;;;9.03;3.90;;;;;;;3.54;37.81;98242.22;5060619;28;20047;-75
2022/01/28 07:55:48;;;;;;;5.50;3.63;;;;;;;3.24;37.79;98245.97;5060955;28;20040;-75
2022/01/28 07:58:14;;;;;;;7.27;3.90;;;;;;;3.25;37.95;98216.97;5062098;28;20062;-77
2022/01/28 08:00:42;;;;;;;9.17;4.07;;;;;;;3.19;37.73;98241.16;5059864;28;20096;-78
2022/01/28 08:03:08;;;;;;;3.13;2.43;;;;;;;3.29;38.13;98247.16;5076904;28;20144;-77
2022/01/28 08:05:34;;;;;;;4.73;2.77;;;;;;;3.27;38.13;98259.63;5076525;28;20515;-76
2022/01/28 08:08:04;;;;;;;4.73;3.07;;;;;;;3.21;37.81;98246.25;5109545;28;20130;-73
2022/01/28 08:10:32;;;;;;;2.00;1.88;;;;;;;3.35;38.07;98240.53;5060220;28;20061;-76
2022/01/28 08:13:01;;;;;;;5.53;3.17;;;;;;;3.29;38.27;98234.06;5093336;28;20039;-75
2022/01/28 08:15:27;;;;;;;6.23;3.60;;;;;;;3.33;38.65;98227.56;5076050;28;20052;-77
2022/01/28 08:17:52;;;;;;;7.03;4.60;;;;;;;3.30;38.22;98227.84;5076379;28;20040;-79
2022/01/28 08:20:18;;;;;;;8.53;4.33;;;;;;;3.55;38.08;98238.59;5076518;28;20101;-78
2022/01/28 08:22:46;;;;;;;10.47;4.87;;;;;;;3.80;37.72;98217.69;5059805;28;20047;-77
2022/01/28 08:25:13;;;;;;;8.23;4.33;;;;;;;3.56;38.16;98232.38;5077575;28;20134;-72
2022/01/28 08:27:45;;;;;;;7.37;4.13;;;;;;;4.06;37.91;98215.94;5092970;28;20040;-75
2022/01/28 08:30:14;;;;;;;7.23;3.83;;;;;;;3.90;38.13;98230.75;5127725;28;20035;-73
2022/01/28 08:32:40;;;;;;;7.43;3.63;;;;;;;3.57;37.81;98187.59;5093059;28;20047;-73
2022/01/28 08:35:07;;;;;;;3.93;2.73;;;;;;;3.77;37.85;98183.06;5059676;28;20137;-71
2022/01/28 08:37:33;;;;;;;4.83;3.17;;;;;;;3.53;37.86;98198.56;5077159;28;20498;-72
2022/01/28 08:39:59;;;;;;;6.73;3.90;;;;;;;3.93;38.30;98220.78;5111538;28;20039;-70
2022/01/28 08:42:26;;;;;;;9.23;4.63;;;;;;;4.01;37.99;98235.78;5112281;28;20066;-72
2022/01/28 08:44:52;;;;;;;9.47;4.97;;;;;;;3.85;37.95;98214.59;5129499;28;20172;-73
2022/01/28 08:47:17;;;;;;;6.33;3.33;;;;;;;3.65;37.48;98178.97;5095517;28;20134;-71
2022/01/28 08:49:43;;;;;;;9.80;4.07;;;;;;;3.93;37.60;98214.69;5094592;28;20065;-72
2022/01/28 08:52:09;;;;;;;10.83;4.53;;;;;;;3.88;37.63;98217.75;5095717;28;20043;-71
2022/01/28 08:54:35;;;;;;;7.90;4.40;;;;;;;3.80;37.37;98212.44;5095586;28;20570;-73
2022/01/28 08:57:01;;;;;;;4.40;2.90;;;;;;;3.81;37.36;98211.47;5112612;28;20043;-72
2022/01/28 08:59:26;;;;;;;8.53;3.87;;;;;;;3.82;38.05;98201.78;5113009;28;20514;-74
2022/01/28 09:01:52;;;;;;;7.83;3.57;;;;;;;4.01;38.30;98201.63;5113267;28;20046;-74
2022/01/28 09:04:18;;;;;;;7.00;3.83;;;;;;;4.09;37.65;98209.56;5095581;28;20507;-73
2022/01/28 09:06:45;;;;;;;4.30;3.40;;;;;;;4.39;37.57;98190.72;5096379;28;20039;-73
2022/01/28 09:09:11;;;;;;;3.10;2.60;;;;;;;4.14;37.42;98209.91;5096244;28;20126;-73
2022/01/28 09:12:05;;;;;;;4.33;2.87;;;;;;;4.29;37.41;98192.66;5078465;28;20042;-72
2022/01/28 09:14:31;;;;;;;9.40;3.80;;;;;;;4.39;37.60;98170.53;5116605;28;20062;-73
2022/01/28 09:16:56;;;;;;;8.40;4.47;;;;;;;4.37;36.90;98197.94;5128709;28;20514;-71
2022/01/28 09:19:23;;;;;;;6.37;4.00;;;;;;;4.27;37.02;98191.97;5090377;28;20036;-66
2022/01/28 09:21:50;;;;;;;11.53;5.63;;;;;;;4.50;37.20;98191.31;5055035;28;20044;-69
2022/01/28 09:24:16;;;;;;;2.30;2.10;;;;;;;4.31;36.81;98188.88;5087673;28;20071;-70
2022/01/28 09:26:41;;;;;;;11.20;4.97;;;;;;;3.92;37.27;98163.16;5072281;28;20133;-70
2022/01/28 09:29:07;;;;;;;5.00;3.03;;;;;;;4.02;37.70;98187.50;5058499;28;20418;-70
2022/01/28 09:31:34;;;;;;;8.00;3.90;;;;;;;4.30;37.25;98191.66;5058440;28;20044;-70
2022/01/28 09:33:59;;;;;;;8.90;4.90;;;;;;;4.11;37.41;98184.78;5041666;28;20484;-69
2022/01/28 09:36:25;;;;;;;15.33;5.63;;;;;;;4.22;37.70;98181.09;5058262;28;20089;-71
2022/01/28 09:38:51;;;;;;;9.60;4.77;;;;;;;3.87;37.48;98160.97;5058307;28;20043;-73
2022/01/28 09:41:17;;;;;;;7.83;3.77;;;;;;;4.32;37.44;98185.25;5075201;28;20086;-70
2022/01/28 09:43:44;;;;;;;12.20;3.87;;;;;;;4.71;37.39;98175.16;5091449;28;20123;-72
2022/01/28 09:46:11;;;;;;;3.70;2.40;;;;;;;4.60;37.11;98199.06;5058503;28;20050;-69
2022/01/28 09:48:38;;;;;;;10.90;5.47;;;;;;;4.46;37.60;98182.06;5074783;28;20085;-69
2022/01/28 09:51:04;;;;;;;9.13;4.13;;;;;;;4.35;37.44;98179.69;5058145;28;20044;-68
2022/01/28 09:53:30;;;;;;;13.13;6.53;;;;;;;4.34;37.26;98178.06;5074556;28;20044;-69
2022/01/28 09:55:57;;;;;;;13.73;5.17;;;;;;;4.46;37.55;98176.81;5074046;28;20040;-72
2022/01/28 09:58:23;;;;;;;12.57;5.13;;;;;;;4.34;37.55;98161.47;5091299;28;20052;-70
2022/01/28 10:00:49;;;;;;;8.70;3.97;;;;;;;4.25;37.30;98176.34;5041538;28;20040;-72
2022/01/28 10:03:17;;;;;;;6.73;4.20;;;;;;;4.59;37.45;98189.53;5058355;28;20500;-72
2022/01/28 10:05:46;;;;;;;10.73;4.33;;;;;;;4.64;37.41;98176.75;5075070;28;20439;-73
2022/01/28 10:08:24;;;;;;;10.00;5.03;;;;;;;4.65;37.64;98167.88;5091121;28;20135;-71
2022/01/28 10:11:08;;;;;;;9.80;3.77;;;;;;;5.02;37.16;98169.22;5057531;28;20044;-76
2022/01/28 10:13:53;;;;;;;6.60;3.97;;;;;;;4.69;37.20;98167.41;5091281;28;20047;-74
2022/01/28 10:16:22;;;;;;;7.40;4.10;;;;;;;4.46;37.23;98123.44;5059243;28;20522;-76
2022/01/28 10:18:55;;;;;;;2.80;1.90;;;;;;;4.90;36.81;98162.59;5056954;28;20123;-68
2022/01/28 10:21:25;;;;;;;11.37;4.60;;;;;;;4.73;37.32;98162.66;5091592;28;20040;-77
2022/01/28 10:24:03;;;;;;;6.70;3.75;;;;;;;4.64;36.89;98134.69;5074459;28;20078;-77
2022/01/28 10:26:33;;;;;;;10.60;4.63;;;;;;;4.55;37.38;98131.19;5059134;28;20057;-78
2022/01/28 10:29:00;;;;;;;7.27;4.37;;;;;;;4.59;37.89;98163.25;5074882;28;20503;-75
2022/01/28 10:31:36;;;;;;;6.43;3.70;;;;;;;4.82;37.49;98161.72;5040460;28;20527;-74
2022/01/28 10:34:15;;;;;;;9.83;3.83;;;;;;;4.92;37.95;98146.66;5040381;28;20040;-73
2022/01/28 10:36:40;;;;;;;10.83;4.70;;;;;;;4.33;37.42;98144.06;5040937;28;20526;-74
2022/01/28 10:39:16;;;;;;;15.93;5.47;;;;;;;4.62;37.27;98128.75;5056226;28;20032;-76
2022/01/28 10:41:50;;;;;;;6.27;3.40;;;;;;;4.97;37.02;98149.63;5074088;28;20046;-71
2022/01/28 10:44:16;;;;;;;5.70;3.10;;;;;;;4.63;37.38;98138.28;5073307;28;20127;-71
2022/01/28 10:46:50;;;;;;;6.93;4.10;;;;;;;5.05;37.10;98133.88;5057395;28;20364;-79
2022/01/28 10:49:16;;;;;;;8.00;3.57;;;;;;;4.64;37.07;98147.84;5056860;28;20036;-75
2022/01/28 10:51:45;;;;;;;6.27;3.40;;;;;;;4.64;37.15;98111.03;5057579;28;20097;-77
2022/01/28 10:54:16;;;;;;;12.03;5.57;;;;;;;4.99;37.41;98145.84;5074221;28;20040;-72
2022/01/28 10:56:57;;;;;;;18.23;7.03;;;;;;;5.09;37.16;98143.06;5073829;28;20942;-76
2022/01/28 10:59:28;;;;;;;9.10;4.93;;;;;;;4.85;37.23;98141.19;5073309;28;20044;-71
2022/01/28 11:01:54;;;;;;;10.32;4.53;;;;;;;4.67;37.45;98147.53;5039878;28;20150;-71
2022/01/28 11:04:21;;;;;;;10.43;4.80;;;;;;;4.73;37.62;98131.13;5090376;28;20066;-72
2022/01/28 11:06:48;;;;;;;9.80;4.60;;;;;;;4.55;37.62;98080.44;5089757;28;20385;-69
2022/01/28 11:09:16;;;;;;;5.30;2.93;;;;;;;4.71;37.93;98112.88;5089703;28;20146;-70
2022/01/28 11:11:42;;;;;;;4.67;2.43;;;;;;;4.85;38.39;98114.06;5056318;28;20510;-75
2022/01/28 11:14:08;;;;;;;10.63;4.73;;;;;;;4.51;37.44;98129.88;5072882;28;20112;-73
2022/01/28 11:16:35;;;;;;;8.63;4.47;;;;;;;4.60;37.64;98133.34;5039121;28;20071;-73
2022/01/28 11:19:02;;;;;;;5.77;2.97;;;;;;;4.56;37.77;98126.75;5055847;28;20040;-70
2022/01/28 11:21:46;;;;;;;12.80;5.30;;;;;;;5.03;37.28;98128.75;5072856;28;20139;-70
2022/01/28 11:24:35;;;;;;;7.30;3.67;;;;;;;5.03;37.30;98128.75;5072792;28;20044;-71
2022/01/28 11:27:07;;;;;;;11.53;6.13;;;;;;;4.84;37.51;98138.72;5052742;28;20044;-77
2022/01/28 11:29:33;;;;;;;5.63;2.50;;;;;;;4.61;38.37;98096.38;5073117;28;20514;-81
2022/01/28 11:32:17;;;;;;;3.60;2.17;;;;;;;5.18;37.45;98107.94;5039052;28;20047;-79
2022/01/28 11:34:57;;;;;;;5.20;3.30;;;;;;;5.13;37.17;98113.69;5056377;28;20044;-76
2022/01/28 11:37:29;;;;;;;4.55;3.53;;;;;;;4.93;37.52;98133.34;5056336;28;20052;-75
2022/01/28 11:40:09;;;;;;;7.07;3.97;;;;;;;4.59;37.18;98087.84;5089797;28;20439;-81
2022/01/28 11:42:35;;;;;;;14.33;6.43;;;;;;;4.40;38.24;98124.03;5073276;28;20050;-80
2022/01/28 11:45:04;;;;;;;13.57;5.67;;;;;;;4.87;37.98;98122.63;5056074;28;20044;-74
2022/01/28 11:47:35;;;;;;;10.17;5.20;;;;;;;4.94;37.31;98128.88;5091220;28;20396;-81
2022/01/28 11:50:15;;;;;;;9.60;3.30;;;;;;;5.11;37.38;98126.16;5072528;28;20040;-79
2022/01/28 11:52:47;;;;;;;6.83;3.43;;;;;;;5.01;37.15;98124.66;5064912;28;20046;-78
2022/01/28 11:55:26;;;;;;;6.30;3.67;;;;;;;4.76;37.43;98080.84;5081629;28;20149;-78
2022/01/28 11:58:01;;;;;;;14.53;6.03;;;;;;;4.86;37.74;98134.13;5057823;28;20036;-78
2022/01/28 12:00:47;;;;;;;13.90;5.70;;;;;;;4.88;37.58;98134.78;5076191;28;20036;-74
2022/01/28 12:03:28;;;;;;;8.73;3.63;;;;;;;4.88;37.83;98088.28;5090850;28;20553;-76
2022/01/28 12:05:58;;;;;;;;;;;;;;;5.13;36.96;98137.34;5070318;28;20036;-75
2022/01/28 12:08:31;;;;;;;15.97;5.90;;;;;;;4.93;37.89;98122.00;5054820;28;19924;-74
2022/01/28 12:11:02;;;;;;;5.27;2.93;;;;;;;4.43;37.89;98134.25;5104765;28;20040;-74
2022/01/28 12:13:47;;;;;;;11.70;5.03;;;;;;;4.62;37.79;98081.44;5094661;28;20036;-74
2022/01/28 12:16:25;;;;;;;7.30;4.50;;;;;;;4.93;37.52;98141.25;5097550;28;20056;-76
2022/01/28 12:18:56;;;;;;;4.87;3.03;;;;;;;4.71;37.91;98140.97;5057452;28;20056;-79
2022/01/28 12:21:31;;;;;;;14.75;5.88;;;;;;;4.78;38.00;98128.84;5074430;28;20051;-76
2022/01/28 12:24:18;;;;;;;15.00;6.53;;;;;;;4.97;37.38;98136.47;5108336;28;20130;-76
2022/01/28 12:27:00;;;;;;;7.27;3.80;;;;;;;4.67;37.66;98092.31;5075032;28;20040;-76
2022/01/28 12:29:34;;;;;;;9.47;4.73;;;;;;;4.75;38.18;98124.72;5091952;28;20039;-75
2022/01/28 12:32:00;;;;;;;9.87;4.90;;;;;;;4.50;38.27;98136.13;5108624;28;20047;-76
2022/01/28 12:34:26;;;;;;;10.33;4.20;;;;;;;4.49;38.33;98138.91;5101659;28;20116;-76
2022/01/28 12:36:56;;;;;;;15.40;4.90;;;;;;;4.47;38.47;98131.16;5074165;28;20072;-76
2022/01/28 12:39:36;;;;;;;16.77;7.17;;;;;;;4.47;38.13;98128.53;5061633;28;20048;-78
2022/01/28 12:42:22;;;;;;;7.43;4.00;;;;;;;4.29;38.21;98087.53;5073141;28;20047;-75
2022/01/28 12:44:53;;;;;;;3.97;2.83;;;;;;;4.78;37.88;98136.75;5106205;28;20039;-76
2022/01/28 12:47:18;;;;;;;;;;;;;;;5.17;37.44;98132.56;5065979;28;20086;-76
2022/01/28 12:49:46;;;;;;;9.53;4.90;;;;;;;4.42;38.00;98143.13;5066048;28;19920;-75
2022/01/28 12:52:12;;;;;;;13.23;5.67;;;;;;;4.54;38.40;98134.81;5070686;28;20044;-75
2022/01/28 12:54:41;;;;;;;12.03;5.67;;;;;;;4.29;38.16;98090.16;5082835;28;20134;-75
2022/01/28 12:57:11;;;;;;;11.87;5.67;;;;;;;4.50;38.37;98133.50;5079709;28;20071;-75
2022/01/28 12:59:39;;;;;;;10.05;5.65;;;;;;;4.38;38.07;98128.66;5058253;28;20043;-75
2022/01/28 13:02:05;;;;;;;6.00;3.57;;;;;;;4.29;38.25;98121.69;5110896;28;20475;-74
2022/01/28 13:04:50;;;;;;;13.30;4.60;;;;;;;4.43;38.35;98119.31;5095792;28;20104;-75
2022/01/28 13:10:01;;;;;;;15.73;5.53;;;;;;;4.48;37.99;98130.19;5065169;28;20052;-74